sensor_id;sensor_type;location;lat;lon;timestamp;pressure;altitude;pressure_sealevel;temperature;humidity
50867;BME280;36839;51.946;21.002;2023-07-29T00:02:04;99434.72;;;15.39;100.00
50867;BME280;36839;51.946;21.002;2023-07-29T00:04:31;99437.55;;;15.41;100.00
50867;BME280;36839;51.946;21.002;2023-07-29T00:06:58;99442.73;;;15.42;100.00
50867;BME280;36839;51.946;21.002;2023-07-29T00:09:25;99437.98;;;15.43;100.00
50867;BME280;36839;51.946;21.002;2023-07-29T00:11:52;99439.39;;;15.43;100.00
50867;BME280;36839;51.946;21.002;2023-07-29T00:14:20;99442.42;;;15.44;100.00
50867;BME280;36839;51.946;21.002;2023-07-29T00:16:47;99441.82;;;15.46;100.00
50867;BME280;36839;51.946;21.002;2023-07-29T00:19:15;99441.45;;;15.47;100.00
50867;BME280;36839;51.946;21.002;2023-07-29T00:21:43;99442.73;;;15.48;100.00
50867;BME280;36839;51.946;21.002;2023-07-29T00:24:10;99442.21;;;15.48;100.00
50867;BME280;36839;51.946;21.002;2023-07-29T00:26:37;99441.29;;;15.47;100.00
50867;BME280;36839;51.946;21.002;2023-07-29T00:29:04;99443.27;;;15.46;100.00
50867;BME280;36839;51.946;21.002;2023-07-29T00:31:31;99446.44;;;15.48;100.00
50867;BME280;36839;51.946;21.002;2023-07-29T00:33:58;99449.45;;;15.48;100.00
50867;BME280;36839;51.946;21.002;2023-07-29T00:36:25;99449.41;;;15.46;100.00
50867;BME280;36839;51.946;21.002;2023-07-29T00:38:52;99455.04;;;15.42;100.00
50867;BME280;36839;51.946;21.002;2023-07-29T00:41:23;99454.55;;;15.40;100.00
50867;BME280;36839;51.946;21.002;2023-07-29T00:43:54;99457.80;;;15.38;100.00
50867;BME280;36839;51.946;21.002;2023-07-29T00:46:21;99455.17;;;15.36;100.00
50867;BME280;36839;51.946;21.002;2023-07-29T00:48:49;99458.55;;;15.35;100.00
50867;BME280;36839;51.946;21.002;2023-07-29T00:51:16;99455.39;;;15.32;100.00
50867;BME280;36839;51.946;21.002;2023-07-29T00:53:42;99455.13;;;15.28;100.00
50867;BME280;36839;51.946;21.002;2023-07-29T00:56:10;99457.18;;;15.20;100.00
50867;BME280;36839;51.946;21.002;2023-07-29T00:58:39;99452.55;;;15.13;100.00
50867;BME280;36839;51.946;21.002;2023-07-29T01:01:06;99452.98;;;15.08;100.00
50867;BME280;36839;51.946;21.002;2023-07-29T01:03:33;99453.12;;;15.01;100.00
50867;BME280;36839;51.946;21.002;2023-07-29T01:06:11;99454.42;;;14.96;100.00
50867;BME280;36839;51.946;21.002;2023-07-29T01:08:56;99452.09;;;14.92;100.00
50867;BME280;36839;51.946;21.002;2023-07-29T01:11:46;99449.45;;;14.89;100.00
50867;BME280;36839;51.946;21.002;2023-07-29T01:17:09;99452.79;;;14.75;100.00
50867;BME280;36839;51.946;21.002;2023-07-29T01:19:59;99456.55;;;14.69;100.00
50867;BME280;36839;51.946;21.002;2023-07-29T01:22:29;99457.46;;;14.66;100.00
50867;BME280;36839;51.946;21.002;2023-07-29T01:24:58;99452.80;;;14.62;100.00
50867;BME280;36839;51.946;21.002;2023-07-29T01:27:26;99450.34;;;14.57;100.00
50867;BME280;36839;51.946;21.002;2023-07-29T01:29:55;99451.44;;;14.54;100.00
50867;BME280;36839;51.946;21.002;2023-07-29T01:32:29;99446.77;;;14.51;100.00
50867;BME280;36839;51.946;21.002;2023-07-29T01:37:34;99448.67;;;14.43;100.00
50867;BME280;36839;51.946;21.002;2023-07-29T01:40:08;99447.68;;;14.41;100.00
50867;BME280;36839;51.946;21.002;2023-07-29T01:42:35;99452.30;;;14.40;100.00
50867;BME280;36839;51.946;21.002;2023-07-29T01:45:03;99453.09;;;14.37;100.00
50867;BME280;36839;51.946;21.002;2023-07-29T01:47:31;99455.25;;;14.30;100.00
50867;BME280;36839;51.946;21.002;2023-07-29T01:49:58;99461.66;;;14.22;100.00
50867;BME280;36839;51.946;21.002;2023-07-29T01:52:26;99462.87;;;14.13;100.00
50867;BME280;36839;51.946;21.002;2023-07-29T01:54:53;99465.69;;;14.06;100.00
50867;BME280;36839;51.946;21.002;2023-07-29T01:57:20;99476.18;;;14.01;100.00
50867;BME280;36839;51.946;21.002;2023-07-29T01:59:47;99477.96;;;13.98;100.00
50867;BME280;36839;51.946;21.002;2023-07-29T02:02:14;99480.88;;;13.97;100.00
50867;BME280;36839;51.946;21.002;2023-07-29T02:04:41;99483.41;;;13.94;100.00
50867;BME280;36839;51.946;21.002;2023-07-29T02:07:08;99489.86;;;13.92;100.00
50867;BME280;36839;51.946;21.002;2023-07-29T02:09:35;99492.69;;;13.93;100.00
50867;BME280;36839;51.946;21.002;2023-07-29T02:12:03;99492.39;;;13.94;100.00
50867;BME280;36839;51.946;21.002;2023-07-29T02:14:30;99499.85;;;13.98;100.00
50867;BME280;36839;51.946;21.002;2023-07-29T02:16:57;99499.15;;;14.05;100.00
50867;BME280;36839;51.946;21.002;2023-07-29T02:19:24;99501.26;;;14.10;100.00
50867;BME280;36839;51.946;21.002;2023-07-29T02:21:51;99502.79;;;14.14;100.00
50867;BME280;36839;51.946;21.002;2023-07-29T02:24:18;99509.21;;;14.17;100.00
50867;BME280;36839;51.946;21.002;2023-07-29T02:26:45;99508.07;;;14.16;100.00
50867;BME280;36839;51.946;21.002;2023-07-29T02:29:12;99508.97;;;14.15;100.00
50867;BME280;36839;51.946;21.002;2023-07-29T02:31:39;99507.27;;;14.17;100.00
50867;BME280;36839;51.946;21.002;2023-07-29T02:34:06;99506.77;;;14.21;100.00
50867;BME280;36839;51.946;21.002;2023-07-29T02:36:33;99504.73;;;14.26;100.00
50867;BME280;36839;51.946;21.002;2023-07-29T02:39:00;99512.69;;;14.32;100.00
50867;BME280;36839;51.946;21.002;2023-07-29T02:41:27;99520.96;;;14.46;100.00
50867;BME280;36839;51.946;21.002;2023-07-29T02:43:54;99527.07;;;14.52;100.00
50867;BME280;36839;51.946;21.002;2023-07-29T02:46:21;99531.50;;;14.54;100.00
50867;BME280;36839;51.946;21.002;2023-07-29T02:48:50;99534.25;;;14.56;100.00
50867;BME280;36839;51.946;21.002;2023-07-29T02:51:17;99535.33;;;14.57;100.00
50867;BME280;36839;51.946;21.002;2023-07-29T02:53:44;99538.03;;;14.61;100.00
50867;BME280;36839;51.946;21.002;2023-07-29T02:56:11;99538.34;;;14.67;100.00
50867;BME280;36839;51.946;21.002;2023-07-29T02:58:38;99539.00;;;14.71;100.00
50867;BME280;36839;51.946;21.002;2023-07-29T03:01:06;99538.02;;;14.75;100.00
50867;BME280;36839;51.946;21.002;2023-07-29T03:03:33;99538.36;;;14.80;100.00
50867;BME280;36839;51.946;21.002;2023-07-29T03:06:02;99539.67;;;14.87;100.00
50867;BME280;36839;51.946;21.002;2023-07-29T03:08:29;99540.13;;;14.98;100.00
50867;BME280;36839;51.946;21.002;2023-07-29T03:10:57;99541.11;;;15.08;100.00
50867;BME280;36839;51.946;21.002;2023-07-29T03:13:25;99541.67;;;15.16;100.00
50867;BME280;36839;51.946;21.002;2023-07-29T03:15:52;99540.23;;;15.23;100.00
50867;BME280;36839;51.946;21.002;2023-07-29T03:18:19;99541.58;;;15.31;100.00
50867;BME280;36839;51.946;21.002;2023-07-29T03:20:48;99544.10;;;15.38;100.00
50867;BME280;36839;51.946;21.002;2023-07-29T03:23:15;99544.80;;;15.45;100.00
50867;BME280;36839;51.946;21.002;2023-07-29T03:25:43;99551.55;;;15.51;100.00
50867;BME280;36839;51.946;21.002;2023-07-29T03:28:11;99551.52;;;15.54;100.00
50867;BME280;36839;51.946;21.002;2023-07-29T03:30:38;99552.44;;;15.58;100.00
50867;BME280;36839;51.946;21.002;2023-07-29T03:33:05;99556.62;;;15.63;100.00
50867;BME280;36839;51.946;21.002;2023-07-29T03:35:32;99556.14;;;15.67;100.00
50867;BME280;36839;51.946;21.002;2023-07-29T03:37:59;99559.58;;;15.72;100.00
50867;BME280;36839;51.946;21.002;2023-07-29T03:40:26;99560.59;;;15.78;100.00
50867;BME280;36839;51.946;21.002;2023-07-29T03:42:53;99562.41;;;15.83;100.00
50867;BME280;36839;51.946;21.002;2023-07-29T03:45:20;99565.14;;;15.88;100.00
50867;BME280;36839;51.946;21.002;2023-07-29T03:47:47;99566.91;;;15.93;100.00
50867;BME280;36839;51.946;21.002;2023-07-29T03:50:14;99571.08;;;15.97;100.00
50867;BME280;36839;51.946;21.002;2023-07-29T03:52:41;99573.20;;;16.01;100.00
50867;BME280;36839;51.946;21.002;2023-07-29T03:55:08;99574.75;;;16.05;100.00
50867;BME280;36839;51.946;21.002;2023-07-29T03:57:35;99574.06;;;16.09;100.00
50867;BME280;36839;51.946;21.002;2023-07-29T04:00:03;99570.90;;;16.11;100.00
50867;BME280;36839;51.946;21.002;2023-07-29T04:02:30;99571.04;;;16.14;100.00
50867;BME280;36839;51.946;21.002;2023-07-29T04:04:57;99577.64;;;16.19;100.00
50867;BME280;36839;51.946;21.002;2023-07-29T04:07:25;99576.19;;;16.24;100.00
50867;BME280;36839;51.946;21.002;2023-07-29T04:09:51;99571.90;;;16.30;100.00
50867;BME280;36839;51.946;21.002;2023-07-29T04:12:18;99570.23;;;16.34;100.00
50867;BME280;36839;51.946;21.002;2023-07-29T04:14:48;99575.28;;;16.38;100.00
50867;BME280;36839;51.946;21.002;2023-07-29T04:17:15;99579.38;;;16.40;100.00
50867;BME280;36839;51.946;21.002;2023-07-29T04:19:42;99582.07;;;16.43;100.00
50867;BME280;36839;51.946;21.002;2023-07-29T04:22:09;99584.43;;;16.44;100.00
50867;BME280;36839;51.946;21.002;2023-07-29T04:24:37;99582.23;;;16.44;100.00
50867;BME280;36839;51.946;21.002;2023-07-29T04:27:05;99580.81;;;16.47;100.00
50867;BME280;36839;51.946;21.002;2023-07-29T04:29:32;99580.91;;;16.50;100.00
50867;BME280;36839;51.946;21.002;2023-07-29T04:31:59;99580.91;;;16.53;100.00
50867;BME280;36839;51.946;21.002;2023-07-29T04:34:28;99578.08;;;16.54;100.00
50867;BME280;36839;51.946;21.002;2023-07-29T04:36:55;99580.25;;;16.60;100.00
50867;BME280;36839;51.946;21.002;2023-07-29T04:39:22;99581.64;;;16.68;100.00
50867;BME280;36839;51.946;21.002;2023-07-29T04:41:49;99585.45;;;16.75;100.00
50867;BME280;36839;51.946;21.002;2023-07-29T04:44:16;99591.85;;;16.84;100.00
50867;BME280;36839;51.946;21.002;2023-07-29T04:46:43;99596.34;;;16.93;100.00
50867;BME280;36839;51.946;21.002;2023-07-29T04:49:10;99594.42;;;17.01;100.00
50867;BME280;36839;51.946;21.002;2023-07-29T04:51:37;99595.06;;;17.04;100.00
50867;BME280;36839;51.946;21.002;2023-07-29T04:54:04;99592.52;;;17.03;100.00
50867;BME280;36839;51.946;21.002;2023-07-29T04:56:31;99589.89;;;17.02;100.00
50867;BME280;36839;51.946;21.002;2023-07-29T04:58:58;99589.42;;;17.05;100.00
50867;BME280;36839;51.946;21.002;2023-07-29T05:01:25;99593.44;;;17.09;100.00
50867;BME280;36839;51.946;21.002;2023-07-29T05:03:52;99599.88;;;17.09;100.00
50867;BME280;36839;51.946;21.002;2023-07-29T05:06:19;99602.59;;;17.11;100.00
50867;BME280;36839;51.946;21.002;2023-07-29T05:08:46;99608.73;;;17.20;100.00
50867;BME280;36839;51.946;21.002;2023-07-29T05:11:14;99610.01;;;17.25;100.00
50867;BME280;36839;51.946;21.002;2023-07-29T05:13:41;99610.42;;;17.29;100.00
50867;BME280;36839;51.946;21.002;2023-07-29T05:16:10;99611.02;;;17.33;100.00
50867;BME280;36839;51.946;21.002;2023-07-29T05:18:37;99614.45;;;17.34;100.00
50867;BME280;36839;51.946;21.002;2023-07-29T05:21:04;99616.78;;;17.32;100.00
50867;BME280;36839;51.946;21.002;2023-07-29T05:23:32;99617.61;;;17.34;100.00
50867;BME280;36839;51.946;21.002;2023-07-29T05:25:59;99617.14;;;17.40;100.00
50867;BME280;36839;51.946;21.002;2023-07-29T05:28:26;99612.54;;;17.46;100.00
50867;BME280;36839;51.946;21.002;2023-07-29T05:30:53;99615.31;;;17.56;100.00
50867;BME280;36839;51.946;21.002;2023-07-29T05:33:20;99617.40;;;17.69;100.00
50867;BME280;36839;51.946;21.002;2023-07-29T05:35:47;99612.45;;;17.80;100.00
50867;BME280;36839;51.946;21.002;2023-07-29T05:38:14;99609.11;;;17.83;100.00
50867;BME280;36839;51.946;21.002;2023-07-29T05:40:41;99605.05;;;17.86;100.00
50867;BME280;36839;51.946;21.002;2023-07-29T05:43:08;99602.52;;;17.83;100.00
50867;BME280;36839;51.946;21.002;2023-07-29T05:45:35;99604.84;;;17.85;100.00
50867;BME280;36839;51.946;21.002;2023-07-29T05:48:02;99604.75;;;17.93;100.00
50867;BME280;36839;51.946;21.002;2023-07-29T05:50:29;99608.19;;;18.05;100.00
50867;BME280;36839;51.946;21.002;2023-07-29T05:52:56;99611.03;;;18.18;100.00
50867;BME280;36839;51.946;21.002;2023-07-29T05:55:23;99612.97;;;18.30;100.00
50867;BME280;36839;51.946;21.002;2023-07-29T05:57:51;99615.82;;;18.43;100.00
50867;BME280;36839;51.946;21.002;2023-07-29T06:00:18;99614.29;;;18.56;100.00
50867;BME280;36839;51.946;21.002;2023-07-29T06:02:45;99615.23;;;18.71;100.00
50867;BME280;36839;51.946;21.002;2023-07-29T06:05:13;99617.30;;;18.83;100.00
50867;BME280;36839;51.946;21.002;2023-07-29T06:07:40;99624.58;;;18.96;100.00
50867;BME280;36839;51.946;21.002;2023-07-29T06:10:13;99622.92;;;19.03;100.00
50867;BME280;36839;51.946;21.002;2023-07-29T06:12:45;99624.84;;;19.04;100.00
50867;BME280;36839;51.946;21.002;2023-07-29T06:15:12;99630.53;;;19.03;100.00
50867;BME280;36839;51.946;21.002;2023-07-29T06:17:40;99628.75;;;19.04;100.00
50867;BME280;36839;51.946;21.002;2023-07-29T06:20:12;99631.20;;;19.10;100.00
50867;BME280;36839;51.946;21.002;2023-07-29T06:22:41;99628.41;;;19.12;100.00
50867;BME280;36839;51.946;21.002;2023-07-29T06:25:10;99623.04;;;19.14;100.00
50867;BME280;36839;51.946;21.002;2023-07-29T06:27:37;99623.55;;;19.17;100.00
50867;BME280;36839;51.946;21.002;2023-07-29T06:30:04;99622.11;;;19.23;100.00
50867;BME280;36839;51.946;21.002;2023-07-29T06:32:34;99628.17;;;19.35;100.00
50867;BME280;36839;51.946;21.002;2023-07-29T06:35:01;99631.19;;;19.46;100.00
50867;BME280;36839;51.946;21.002;2023-07-29T06:37:28;99631.98;;;19.60;100.00
50867;BME280;36839;51.946;21.002;2023-07-29T06:39:57;99634.28;;;19.80;100.00
50867;BME280;36839;51.946;21.002;2023-07-29T06:42:24;99637.62;;;19.97;100.00
50867;BME280;36839;51.946;21.002;2023-07-29T06:44:52;99633.02;;;20.12;100.00
50867;BME280;36839;51.946;21.002;2023-07-29T06:47:19;99634.27;;;20.20;100.00
50867;BME280;36839;51.946;21.002;2023-07-29T06:49:46;99636.23;;;20.27;100.00
50867;BME280;36839;51.946;21.002;2023-07-29T06:52:14;99632.24;;;20.25;100.00
50867;BME280;36839;51.946;21.002;2023-07-29T06:54:41;99631.48;;;20.14;100.00
50867;BME280;36839;51.946;21.002;2023-07-29T06:57:08;99634.94;;;20.08;100.00
50867;BME280;36839;51.946;21.002;2023-07-29T06:59:35;99633.14;;;20.04;100.00
50867;BME280;36839;51.946;21.002;2023-07-29T07:02:03;99634.70;;;20.03;100.00
50867;BME280;36839;51.946;21.002;2023-07-29T07:04:30;99628.00;;;20.06;100.00
50867;BME280;36839;51.946;21.002;2023-07-29T07:06:57;99632.77;;;20.14;100.00
50867;BME280;36839;51.946;21.002;2023-07-29T07:09:24;99628.33;;;20.25;100.00
50867;BME280;36839;51.946;21.002;2023-07-29T07:11:51;99624.41;;;20.42;100.00
50867;BME280;36839;51.946;21.002;2023-07-29T07:14:21;99625.46;;;20.62;100.00
50867;BME280;36839;51.946;21.002;2023-07-29T07:16:52;99621.73;;;20.78;100.00
50867;BME280;36839;51.946;21.002;2023-07-29T07:19:20;99624.32;;;20.94;100.00
50867;BME280;36839;51.946;21.002;2023-07-29T07:21:49;99621.34;;;21.04;100.00
50867;BME280;36839;51.946;21.002;2023-07-29T07:24:15;99621.05;;;21.14;100.00
50867;BME280;36839;51.946;21.002;2023-07-29T07:26:45;99616.19;;;21.23;100.00
50867;BME280;36839;51.946;21.002;2023-07-29T07:29:15;99616.52;;;21.32;100.00
50867;BME280;36839;51.946;21.002;2023-07-29T07:31:50;99617.66;;;21.45;100.00
50867;BME280;36839;51.946;21.002;2023-07-29T07:34:20;99615.15;;;21.58;100.00
50867;BME280;36839;51.946;21.002;2023-07-29T07:36:49;99621.04;;;21.71;100.00
50867;BME280;36839;51.946;21.002;2023-07-29T07:39:16;99621.78;;;21.80;100.00
50867;BME280;36839;51.946;21.002;2023-07-29T07:41:43;99617.46;;;21.78;100.00
50867;BME280;36839;51.946;21.002;2023-07-29T07:44:10;99616.98;;;21.78;100.00
50867;BME280;36839;51.946;21.002;2023-07-29T07:46:39;99615.80;;;21.85;100.00
50867;BME280;36839;51.946;21.002;2023-07-29T07:49:07;99616.38;;;21.94;100.00
50867;BME280;36839;51.946;21.002;2023-07-29T07:51:35;99617.23;;;21.90;100.00
50867;BME280;36839;51.946;21.002;2023-07-29T07:54:02;99619.79;;;21.96;100.00
50867;BME280;36839;51.946;21.002;2023-07-29T07:56:29;99619.88;;;22.05;100.00
50867;BME280;36839;51.946;21.002;2023-07-29T07:58:56;99620.16;;;22.16;100.00
50867;BME280;36839;51.946;21.002;2023-07-29T08:01:23;99619.24;;;22.14;99.97
50867;BME280;36839;51.946;21.002;2023-07-29T08:03:51;99616.45;;;22.06;99.97
50867;BME280;36839;51.946;21.002;2023-07-29T08:06:18;99621.01;;;22.11;100.00
50867;BME280;36839;51.946;21.002;2023-07-29T08:08:46;99621.81;;;22.10;100.00
50867;BME280;36839;51.946;21.002;2023-07-29T08:11:13;99617.73;;;22.03;100.00
50867;BME280;36839;51.946;21.002;2023-07-29T08:13:40;99617.25;;;22.15;100.00
50867;BME280;36839;51.946;21.002;2023-07-29T08:16:07;99617.83;;;22.28;100.00
50867;BME280;36839;51.946;21.002;2023-07-29T08:18:34;99611.75;;;22.49;100.00
50867;BME280;36839;51.946;21.002;2023-07-29T08:21:02;99608.59;;;22.75;99.98
50867;BME280;36839;51.946;21.002;2023-07-29T08:23:31;99607.98;;;23.00;99.83
50867;BME280;36839;51.946;21.002;2023-07-29T08:26:00;99605.75;;;23.20;99.18
50867;BME280;36839;51.946;21.002;2023-07-29T08:28:30;99602.20;;;23.15;93.49
50867;BME280;36839;51.946;21.002;2023-07-29T08:30:57;99604.09;;;23.13;93.66
50867;BME280;36839;51.946;21.002;2023-07-29T08:33:26;99609.10;;;23.14;91.90
50867;BME280;36839;51.946;21.002;2023-07-29T08:35:53;99604.93;;;23.15;90.41
50867;BME280;36839;51.946;21.002;2023-07-29T08:38:21;99602.27;;;23.04;89.73
50867;BME280;36839;51.946;21.002;2023-07-29T08:43:51;99596.75;;;23.08;89.90
50867;BME280;36839;51.946;21.002;2023-07-29T08:46:22;99597.63;;;23.31;88.13
50867;BME280;36839;51.946;21.002;2023-07-29T08:48:49;99590.31;;;23.31;82.24
50867;BME280;36839;51.946;21.002;2023-07-29T08:51:19;99589.08;;;23.23;81.33
50867;BME280;36839;51.946;21.002;2023-07-29T08:53:47;99589.17;;;23.08;83.74
50867;BME280;36839;51.946;21.002;2023-07-29T08:56:15;99592.86;;;23.19;85.20
50867;BME280;36839;51.946;21.002;2023-07-29T08:58:43;99589.33;;;23.31;84.41
50867;BME280;36839;51.946;21.002;2023-07-29T09:01:10;99586.52;;;23.12;83.42
50867;BME280;36839;51.946;21.002;2023-07-29T09:03:37;99588.04;;;22.96;85.64
50867;BME280;36839;51.946;21.002;2023-07-29T09:06:05;99586.09;;;22.95;86.64
50867;BME280;36839;51.946;21.002;2023-07-29T09:08:33;99583.50;;;22.99;88.10
50867;BME280;36839;51.946;21.002;2023-07-29T09:11:01;99587.66;;;22.97;88.79
50867;BME280;36839;51.946;21.002;2023-07-29T09:13:28;99586.91;;;23.12;89.43
50867;BME280;36839;51.946;21.002;2023-07-29T09:15:57;99587.81;;;23.31;88.38
50867;BME280;36839;51.946;21.002;2023-07-29T09:18:26;99590.30;;;23.55;85.87
50867;BME280;36839;51.946;21.002;2023-07-29T09:20:59;99592.48;;;23.75;83.56
50867;BME280;36839;51.946;21.002;2023-07-29T09:23:27;99592.98;;;23.89;78.88
50867;BME280;36839;51.946;21.002;2023-07-29T09:26:03;99589.48;;;23.87;77.47
50867;BME280;36839;51.946;21.002;2023-07-29T09:28:35;99586.80;;;23.81;78.19
50867;BME280;36839;51.946;21.002;2023-07-29T09:31:03;99586.52;;;23.84;81.51
50867;BME280;36839;51.946;21.002;2023-07-29T09:33:34;99586.96;;;23.86;84.46
50867;BME280;36839;51.946;21.002;2023-07-29T09:36:10;99588.10;;;23.82;84.21
50867;BME280;36839;51.946;21.002;2023-07-29T09:38:38;99590.31;;;23.76;83.11
50867;BME280;36839;51.946;21.002;2023-07-29T09:41:07;99592.84;;;23.77;84.82
50867;BME280;36839;51.946;21.002;2023-07-29T09:43:35;99588.36;;;23.87;83.01
50867;BME280;36839;51.946;21.002;2023-07-29T09:46:04;99581.54;;;23.98;80.17
50867;BME280;36839;51.946;21.002;2023-07-29T09:48:38;99581.09;;;24.14;79.29
50867;BME280;36839;51.946;21.002;2023-07-29T09:51:15;99576.26;;;24.18;78.56
50867;BME280;36839;51.946;21.002;2023-07-29T09:53:47;99568.57;;;24.13;79.47
50867;BME280;36839;51.946;21.002;2023-07-29T09:56:15;99570.52;;;24.18;79.64
50867;BME280;36839;51.946;21.002;2023-07-29T09:58:44;99567.30;;;24.13;77.70
50867;BME280;36839;51.946;21.002;2023-07-29T10:08:42;99562.76;;;24.12;81.16
50867;BME280;36839;51.946;21.002;2023-07-29T10:11:11;99563.86;;;24.20;80.91
50867;BME280;36839;51.946;21.002;2023-07-29T10:13:39;99563.09;;;24.40;79.93
50867;BME280;36839;51.946;21.002;2023-07-29T10:16:11;99559.13;;;24.40;75.27
50867;BME280;36839;51.946;21.002;2023-07-29T10:18:39;99561.80;;;24.51;75.84
50867;BME280;36839;51.946;21.002;2023-07-29T10:21:08;99565.31;;;24.87;77.78
50867;BME280;36839;51.946;21.002;2023-07-29T10:23:42;99564.57;;;25.21;74.24
50867;BME280;36839;51.946;21.002;2023-07-29T10:26:19;99565.52;;;25.38;69.40
50867;BME280;36839;51.946;21.002;2023-07-29T10:28:52;99562.69;;;25.32;65.54
50867;BME280;36839;51.946;21.002;2023-07-29T10:31:22;99561.79;;;25.19;63.25
50867;BME280;36839;51.946;21.002;2023-07-29T10:33:51;99561.80;;;25.24;66.24
50867;BME280;36839;51.946;21.002;2023-07-29T10:36:20;99562.29;;;25.20;66.30
50867;BME280;36839;51.946;21.002;2023-07-29T10:38:49;99561.23;;;25.13;68.47
50867;BME280;36839;51.946;21.002;2023-07-29T10:41:16;99555.98;;;25.06;71.19
50867;BME280;36839;51.946;21.002;2023-07-29T10:43:51;99554.34;;;25.04;72.89
50867;BME280;36839;51.946;21.002;2023-07-29T10:46:22;99557.96;;;24.92;70.07
50867;BME280;36839;51.946;21.002;2023-07-29T10:51:38;99557.83;;;24.89;66.97
50867;BME280;36839;51.946;21.002;2023-07-29T10:54:13;99553.48;;;24.95;66.46
50867;BME280;36839;51.946;21.002;2023-07-29T10:56:42;99555.17;;;24.89;65.10
50867;BME280;36839;51.946;21.002;2023-07-29T11:01:54;99551.55;;;24.78;64.68
50867;BME280;36839;51.946;21.002;2023-07-29T11:04:21;99548.04;;;24.70;65.42
50867;BME280;36839;51.946;21.002;2023-07-29T11:12:48;99541.20;;;24.94;64.84
50867;BME280;36839;51.946;21.002;2023-07-29T11:15:25;99535.84;;;25.16;63.92
50867;BME280;36839;51.946;21.002;2023-07-29T11:18:00;99538.64;;;25.34;63.73
50867;BME280;36839;51.946;21.002;2023-07-29T11:20:32;99537.93;;;25.50;64.55
50867;BME280;36839;51.946;21.002;2023-07-29T11:23:02;99534.80;;;25.73;60.43
50867;BME280;36839;51.946;21.002;2023-07-29T11:25:31;99522.59;;;26.06;61.65
50867;BME280;36839;51.946;21.002;2023-07-29T11:28:08;99527.70;;;26.21;60.18
50867;BME280;36839;51.946;21.002;2023-07-29T11:30:41;99527.54;;;26.18;60.25
50867;BME280;36839;51.946;21.002;2023-07-29T11:33:16;99527.34;;;26.15;59.36
50867;BME280;36839;51.946;21.002;2023-07-29T11:35:47;99527.50;;;26.26;59.03
50867;BME280;36839;51.946;21.002;2023-07-29T11:38:16;99521.91;;;26.35;57.13
50867;BME280;36839;51.946;21.002;2023-07-29T11:41:00;99520.46;;;26.34;57.07
50867;BME280;36839;51.946;21.002;2023-07-29T11:43:43;99519.16;;;26.25;58.01
50867;BME280;36839;51.946;21.002;2023-07-29T11:46:13;99514.52;;;26.51;58.62
50867;BME280;36839;51.946;21.002;2023-07-29T11:48:44;99511.81;;;26.72;58.64
50867;BME280;36839;51.946;21.002;2023-07-29T11:51:14;99510.21;;;26.92;56.60
50867;BME280;36839;51.946;21.002;2023-07-29T11:53:44;99509.35;;;27.10;56.36
50867;BME280;36839;51.946;21.002;2023-07-29T11:56:18;99499.74;;;27.21;56.92
50867;BME280;36839;51.946;21.002;2023-07-29T11:58:48;99502.40;;;27.39;57.31
50867;BME280;36839;51.946;21.002;2023-07-29T12:01:17;99500.79;;;27.48;56.75
50867;BME280;36839;51.946;21.002;2023-07-29T12:03:48;99498.65;;;27.66;58.45
50867;BME280;36839;51.946;21.002;2023-07-29T12:06:18;99498.83;;;27.73;53.99
50867;BME280;36839;51.946;21.002;2023-07-29T12:08:46;99493.21;;;27.67;52.54
50867;BME280;36839;51.946;21.002;2023-07-29T12:11:14;99494.88;;;27.54;51.16
50867;BME280;36839;51.946;21.002;2023-07-29T12:13:43;99490.35;;;27.54;51.63
50867;BME280;36839;51.946;21.002;2023-07-29T12:16:16;99488.00;;;27.53;51.92
50867;BME280;36839;51.946;21.002;2023-07-29T12:18:45;99487.25;;;27.42;52.05
50867;BME280;36839;51.946;21.002;2023-07-29T12:21:14;99481.72;;;27.37;52.71
50867;BME280;36839;51.946;21.002;2023-07-29T12:23:41;99477.36;;;27.46;52.87
50867;BME280;36839;51.946;21.002;2023-07-29T12:26:08;99468.23;;;27.54;54.92
50867;BME280;36839;51.946;21.002;2023-07-29T12:28:36;99470.21;;;27.71;58.26
50867;BME280;36839;51.946;21.002;2023-07-29T12:31:07;99462.11;;;27.86;55.93
50867;BME280;36839;51.946;21.002;2023-07-29T12:33:36;99464.23;;;27.89;54.46
50867;BME280;36839;51.946;21.002;2023-07-29T12:36:05;99461.80;;;27.89;53.55
50867;BME280;36839;51.946;21.002;2023-07-29T12:38:32;99460.49;;;27.92;53.86
50867;BME280;36839;51.946;21.002;2023-07-29T12:40:59;99459.83;;;28.05;52.70
50867;BME280;36839;51.946;21.002;2023-07-29T12:43:26;99456.81;;;28.18;51.83
50867;BME280;36839;51.946;21.002;2023-07-29T12:45:54;99454.87;;;28.13;51.63
50867;BME280;36839;51.946;21.002;2023-07-29T12:48:21;99461.46;;;27.92;51.84
50867;BME280;36839;51.946;21.002;2023-07-29T12:50:51;99457.73;;;27.96;52.35
50867;BME280;36839;51.946;21.002;2023-07-29T12:53:20;99457.06;;;28.22;53.46
50867;BME280;36839;51.946;21.002;2023-07-29T12:55:52;99453.09;;;28.29;51.77
50867;BME280;36839;51.946;21.002;2023-07-29T12:58:21;99448.16;;;28.09;50.62
50867;BME280;36839;51.946;21.002;2023-07-29T13:00:52;99444.90;;;28.10;50.43
50867;BME280;36839;51.946;21.002;2023-07-29T13:03:22;99445.70;;;28.31;52.26
50867;BME280;36839;51.946;21.002;2023-07-29T13:05:52;99440.97;;;28.42;51.40
50867;BME280;36839;51.946;21.002;2023-07-29T13:08:23;99443.15;;;28.47;49.26
50867;BME280;36839;51.946;21.002;2023-07-29T13:10:54;99440.13;;;28.55;48.97
50867;BME280;36839;51.946;21.002;2023-07-29T13:13:22;99449.56;;;28.71;48.20
50867;BME280;36839;51.946;21.002;2023-07-29T13:15:52;99441.78;;;28.90;48.66
50867;BME280;36839;51.946;21.002;2023-07-29T13:18:20;99439.91;;;29.09;48.23